Time;durP1;ratioP1;P1;durP2;ratioP2;P2;SDS_P1;SDS_P2;PMS_P1;PMS_P2;Temp;Humidity;BMP_temperature;BMP_pressure;BME280_temperature;BME280_humidity;BME280_pressure;Samples;Min_cycle;Max_cycle;Signal;HPM_P1;HPM_P2
2022/04/11 00:00:20;;;;;;;4.68;3.00;;;6.90;65.10;;;;;;5110498;28;20032;-59
2022/04/11 00:02:45;;;;;;;7.95;3.28;;;6.80;64.80;;;;;;5103386;27;20036;-59
2022/04/11 00:05:11;;;;;;;6.32;2.72;;;6.80;64.80;;;;;;5074317;28;20036;-59
2022/04/11 00:07:37;;;;;;;6.55;2.72;;;6.80;64.90;;;;;;5105222;28;20107;-59
2022/04/11 00:10:03;;;;;;;5.38;2.95;;;6.80;65.20;;;;;;5108953;28;20063;-58
2022/04/11 00:12:34;;;;;;;6.60;2.78;;;6.70;65.40;;;;;;5076388;28;20028;-59
2022/04/11 00:15:00;;;;;;;6.45;3.20;;;6.70;65.50;;;;;;5090216;27;20410;-59
2022/04/11 00:17:26;;;;;;;5.68;2.67;;;6.70;65.50;;;;;;5090772;28;20054;-59
2022/04/11 00:19:52;;;;;;;7.80;3.10;;;6.70;65.60;;;;;;5090075;28;20542;-59
2022/04/11 00:22:17;;;;;;;4.15;2.63;;;6.60;65.70;;;;;;5088683;28;20047;-59
2022/04/11 00:24:43;;;;;;;6.25;2.90;;;6.60;65.90;;;;;;5106476;28;20337;-60
2022/04/11 00:27:08;;;;;;;5.85;3.13;;;6.60;66.00;;;;;;5088250;28;20035;-59
2022/04/11 00:29:34;;;;;;;7.68;2.72;;;6.60;66.10;;;;;;5083666;28;20332;-59
2022/04/11 00:32:00;;;;;;;5.72;3.20;;;6.60;66.00;;;;;;5102794;27;20065;-60
2022/04/11 00:34:25;;;;;;;6.72;3.45;;;6.50;66.20;;;;;;5109932;28;20039;-60
2022/04/11 00:36:51;;;;;;;7.60;3.67;;;6.50;66.30;;;;;;5084968;28;20044;-59
2022/04/11 00:39:17;;;;;;;8.27;4.05;;;6.50;66.40;;;;;;5089147;28;20494;-59
2022/04/11 00:41:42;;;;;;;7.30;4.03;;;6.50;66.30;;;;;;5087082;28;20060;-59
2022/04/11 00:44:08;;;;;;;6.70;3.83;;;6.50;66.40;;;;;;5097094;28;20123;-59
2022/04/11 00:46:34;;;;;;;6.65;3.60;;;6.50;66.60;;;;;;5103037;28;20281;-59
2022/04/11 00:48:59;;;;;;;7.15;3.33;;;6.40;66.80;;;;;;5090033;28;20459;-60
2022/04/11 00:51:26;;;;;;;5.78;3.42;;;6.40;66.80;;;;;;5093121;28;20067;-59
2022/04/11 00:53:54;;;;;;;7.32;3.80;;;6.40;66.90;;;;;;5088913;28;20102;-59
2022/04/11 00:56:20;;;;;;;7.22;3.28;;;6.40;67.10;;;;;;5090043;28;20028;-59
2022/04/11 00:58:46;;;;;;;5.32;3.70;;;6.40;67.00;;;;;;5090252;28;20032;-59
2022/04/11 01:01:14;;;;;;;6.65;3.63;;;6.40;67.10;;;;;;5109670;28;20027;-60
2022/04/11 01:03:40;;;;;;;6.28;3.40;;;6.40;67.20;;;;;;5103974;28;20122;-60
2022/04/11 01:06:07;;;;;;;6.88;4.05;;;6.30;67.40;;;;;;5088945;28;20146;-60
2022/04/11 01:08:34;;;;;;;9.43;4.47;;;6.30;67.60;;;;;;5089751;28;20036;-60
2022/04/11 01:11:02;;;;;;;6.93;4.38;;;6.30;67.60;;;;;;5092324;28;20534;-60
2022/04/11 01:13:29;;;;;;;9.15;4.50;;;6.30;67.90;;;;;;5098525;28;20027;-60
2022/04/11 01:15:59;;;;;;;7.95;4.70;;;6.30;67.90;;;;;;5102769;28;20107;-60
2022/04/11 01:18:25;;;;;;;7.30;4.63;;;6.30;68.10;;;;;;5088996;28;20146;-60
2022/04/11 01:20:51;;;;;;;9.43;5.03;;;6.30;68.20;;;;;;5104644;28;20143;-60
2022/04/11 01:23:17;;;;;;;8.48;4.90;;;6.30;68.20;;;;;;5101379;28;20398;-60
2022/04/11 01:25:49;;;;;;;8.27;4.88;;;6.30;68.20;;;;;;5078655;28;20024;-60
2022/04/11 01:28:15;;;;;;;7.43;5.00;;;6.30;68.30;;;;;;5090039;28;20025;-60
2022/04/11 01:30:40;;;;;;;8.23;4.97;;;6.20;68.30;;;;;;5093687;28;20080;-60
2022/04/11 01:33:18;;;;;;;8.45;5.60;;;6.20;68.50;;;;;;5091298;28;20032;-60
2022/04/11 01:35:44;;;;;;;7.47;5.32;;;6.20;68.60;;;;;;5097386;28;20036;-59
2022/04/11 01:38:09;;;;;;;8.40;4.60;;;6.20;68.70;;;;;;5091367;28;20033;-59
2022/04/11 01:40:35;;;;;;;7.47;5.25;;;6.20;68.70;;;;;;5100621;28;20445;-59
2022/04/11 01:43:00;;;;;;;9.98;5.03;;;6.20;68.70;;;;;;5096044;28;20036;-59
2022/04/11 01:45:26;;;;;;;9.95;5.28;;;6.20;68.90;;;;;;5088733;28;20091;-59
2022/04/11 01:47:52;;;;;;;8.95;5.45;;;6.20;68.90;;;;;;5094033;28;20043;-59
2022/04/11 01:50:17;;;;;;;8.35;5.20;;;6.20;69.00;;;;;;5100310;28;20028;-58
2022/04/11 01:52:43;;;;;;;8.68;5.43;;;6.10;69.00;;;;;;5089404;28;20103;-59
2022/04/11 01:55:09;;;;;;;9.32;5.35;;;6.10;69.00;;;;;;5098953;28;20076;-58
2022/04/11 01:57:35;;;;;;;7.45;5.10;;;6.10;69.00;;;;;;5083347;28;20117;-59
2022/04/11 02:00:01;;;;;;;9.60;5.28;;;6.10;69.10;;;;;;5071328;28;20024;-59
2022/04/11 02:02:27;;;;;;;9.35;5.05;;;6.10;69.20;;;;;;5088733;28;20402;-59
2022/04/11 02:04:52;;;;;;;7.43;5.57;;;6.10;69.20;;;;;;5089453;28;20028;-59
2022/04/11 02:07:18;;;;;;;8.18;5.05;;;6.10;69.30;;;;;;5095457;28;20035;-58
2022/04/11 02:09:44;;;;;;;7.53;5.10;;;6.10;69.30;;;;;;5100898;28;20011;-59
2022/04/11 02:12:09;;;;;;;8.90;5.53;;;6.00;69.40;;;;;;5071143;28;20049;-60
2022/04/11 02:14:35;;;;;;;10.05;5.22;;;6.00;69.30;;;;;;5095760;28;20040;-60
2022/04/11 02:17:01;;;;;;;9.07;5.63;;;6.00;69.30;;;;;;5100774;28;20039;-60
2022/04/11 02:19:29;;;;;;;8.10;5.40;;;5.90;69.30;;;;;;5105045;28;20023;-60
2022/04/11 02:21:55;;;;;;;10.52;6.13;;;6.00;69.40;;;;;;5088609;28;20044;-60
2022/04/11 02:24:21;;;;;;;10.32;6.43;;;5.90;69.50;;;;;;5104827;28;20031;-59
2022/04/11 02:26:46;;;;;;;10.23;6.30;;;5.90;69.50;;;;;;5095554;28;20028;-59
2022/04/11 02:29:12;;;;;;;8.95;6.53;;;5.90;69.40;;;;;;5105022;28;20084;-59
2022/04/11 02:31:37;;;;;;;7.22;5.07;;;5.90;69.60;;;;;;5107834;28;20387;-59
2022/04/11 02:34:03;;;;;;;10.60;6.35;;;5.90;69.60;;;;;;5077199;28;20101;-59
2022/04/11 02:36:29;;;;;;;11.60;6.18;;;5.80;69.60;;;;;;5097078;27;20028;-59
2022/04/11 02:38:54;;;;;;;8.80;5.68;;;5.80;69.70;;;;;;5084261;28;20036;-59
2022/04/11 02:41:20;;;;;;;8.60;5.47;;;5.80;69.80;;;;;;5108588;27;20100;-59
2022/04/11 02:43:45;;;;;;;8.30;5.60;;;5.80;69.80;;;;;;5106983;27;20109;-59
2022/04/11 02:46:11;;;;;;;9.10;6.00;;;5.80;70.00;;;;;;5091856;27;20082;-59
2022/04/11 02:48:38;;;;;;;8.05;5.28;;;5.70;69.90;;;;;;5095861;27;20032;-59
2022/04/11 02:51:04;;;;;;;12.10;6.40;;;5.70;69.90;;;;;;5074407;27;20051;-59
2022/04/11 02:53:29;;;;;;;8.73;5.93;;;5.70;70.00;;;;;;5103421;27;20059;-59
2022/04/11 02:55:55;;;;;;;9.55;6.47;;;5.70;70.00;;;;;;5091462;28;20074;-59
2022/04/11 02:58:21;;;;;;;10.57;6.22;;;5.70;70.20;;;;;;5091680;28;20036;-59
2022/04/11 03:00:46;;;;;;;8.68;6.05;;;5.70;70.20;;;;;;5092017;28;20052;-59
2022/04/11 03:03:12;;;;;;;8.75;6.50;;;5.70;70.30;;;;;;5092047;28;20441;-59
2022/04/11 03:05:38;;;;;;;11.32;6.22;;;5.60;70.30;;;;;;5073308;27;20471;-59
2022/04/11 03:08:04;;;;;;;9.75;6.50;;;5.60;70.30;;;;;;5107408;27;20217;-59
2022/04/11 03:10:29;;;;;;;11.57;6.57;;;5.60;70.40;;;;;;5091158;28;20043;-59
2022/04/11 03:12:55;;;;;;;8.85;6.38;;;5.50;70.40;;;;;;5102409;28;20430;-58
2022/04/11 03:15:21;;;;;;;10.48;6.30;;;5.50;71.00;;;;;;5109071;28;20091;-59
2022/04/11 03:17:46;;;;;;;9.27;6.28;;;5.50;70.30;;;;;;5111639;28;20039;-59
2022/04/11 03:20:12;;;;;;;9.65;6.75;;;5.50;70.40;;;;;;5091958;28;20104;-58
2022/04/11 03:22:38;;;;;;;10.27;6.90;;;5.50;70.40;;;;;;5085674;28;20391;-59
2022/04/11 03:25:04;;;;;;;11.10;7.07;;;5.40;70.50;;;;;;5095128;28;20442;-59
2022/04/11 03:27:30;;;;;;;12.02;7.45;;;5.40;70.70;;;;;;5092456;28;20103;-60
2022/04/11 03:29:55;;;;;;;10.07;6.22;;;5.40;70.80;;;;;;5100280;28;20114;-60
2022/04/11 03:32:21;;;;;;;8.98;6.90;;;5.30;70.80;;;;;;5091762;28;20140;-60
2022/04/11 03:34:49;;;;;;;12.68;6.55;;;5.30;70.80;;;;;;5075365;28;20483;-60
2022/04/11 03:37:14;;;;;;;8.98;6.35;;;5.30;70.90;;;;;;5106133;27;20046;-60
2022/04/11 03:39:40;;;;;;;13.20;7.20;;;5.30;70.90;;;;;;5097417;28;20036;-59
2022/04/11 03:42:06;;;;;;;11.15;6.68;;;5.30;71.00;;;;;;5094732;28;20089;-59
2022/04/11 03:44:31;;;;;;;9.88;6.63;;;5.30;71.00;;;;;;5072516;28;20044;-59
2022/04/11 03:46:57;;;;;;;9.40;6.10;;;5.20;70.90;;;;;;5108757;28;20489;-59
2022/04/11 03:49:23;;;;;;;10.77;6.95;;;5.20;70.90;;;;;;5102851;27;20030;-59
2022/04/11 03:51:48;;;;;;;9.15;6.90;;;5.20;70.90;;;;;;5095914;28;20040;-59
2022/04/11 03:54:14;;;;;;;7.43;6.32;;;5.20;70.80;;;;;;5100249;28;20027;-59
2022/04/11 03:56:40;;;;;;;8.68;6.75;;;5.20;70.90;;;;;;5070519;28;20046;-59
2022/04/11 03:59:05;;;;;;;10.77;6.43;;;5.20;70.90;;;;;;5121382;27;20034;-59
2022/04/11 04:01:31;;;;;;;7.78;6.50;;;5.10;71.00;;;;;;5091560;28;20038;-60
2022/04/11 04:03:57;;;;;;;10.13;7.05;;;5.10;71.10;;;;;;5108143;27;20036;-60
2022/04/11 04:06:23;;;;;;;11.38;7.25;;;5.10;71.10;;;;;;5102528;28;20031;-59
2022/04/11 04:08:49;;;;;;;12.50;7.07;;;5.10;71.10;;;;;;5089808;28;20023;-61
2022/04/11 04:11:14;;;;;;;10.10;7.22;;;5.00;71.20;;;;;;5123861;27;20049;-60
2022/04/11 04:13:40;;;;;;;9.10;6.95;;;5.00;71.30;;;;;;5092439;28;20043;-60
2022/04/11 04:16:06;;;;;;;13.93;6.82;;;5.00;71.30;;;;;;5107399;28;20031;-60
2022/04/11 04:18:31;;;;;;;10.70;6.82;;;5.00;71.30;;;;;;5119495;27;20039;-60
2022/04/11 04:20:57;;;;;;;10.18;7.25;;;5.00;71.40;;;;;;5108344;27;20027;-60
2022/04/11 04:23:23;;;;;;;14.05;7.22;;;5.00;71.50;;;;;;5106396;27;20039;-59
2022/04/11 04:25:48;;;;;;;11.82;6.70;;;4.90;71.60;;;;;;5113149;27;20023;-59
2022/04/11 04:28:17;;;;;;;10.68;7.10;;;4.90;71.70;;;;;;5118598;27;20026;-60
2022/04/11 04:30:44;;;;;;;9.65;7.45;;;4.90;71.80;;;;;;5115992;27;20346;-60
2022/04/11 04:33:09;;;;;;;10.85;6.82;;;4.90;72.00;;;;;;5090007;28;20020;-61
2022/04/11 04:35:35;;;;;;;9.70;7.05;;;4.90;72.00;;;;;;5107504;28;20093;-60
2022/04/11 04:38:01;;;;;;;10.32;7.72;;;4.90;72.10;;;;;;5106934;27;20024;-61
2022/04/11 04:40:27;;;;;;;12.05;8.02;;;4.90;72.40;;;;;;5108779;27;20070;-61
2022/04/11 04:42:52;;;;;;;10.32;7.43;;;4.90;72.60;;;;;;5086217;28;20502;-60
2022/04/11 04:45:19;;;;;;;11.32;7.22;;;4.90;72.80;;;;;;5115474;27;20363;-60
2022/04/11 04:47:45;;;;;;;10.05;7.80;;;4.90;72.90;;;;;;5102987;28;20431;-60
2022/04/11 04:50:11;;;;;;;10.85;7.90;;;4.90;73.10;;;;;;5110143;27;20031;-59
2022/04/11 04:52:40;;;;;;;13.18;8.20;;;4.90;73.20;;;;;;5093696;28;20031;-59
2022/04/11 04:55:07;;;;;;;9.13;7.35;;;4.90;73.40;;;;;;5105506;28;20122;-60
2022/04/11 04:57:33;;;;;;;10.05;7.57;;;4.90;73.40;;;;;;5110515;27;20028;-58
2022/04/11 04:59:59;;;;;;;11.35;7.55;;;4.90;73.40;;;;;;5107909;28;20042;-59
2022/04/11 05:02:25;;;;;;;11.07;7.80;;;4.90;73.40;;;;;;5088904;28;20031;-59
2022/04/11 05:04:50;;;;;;;10.43;7.88;;;4.90;73.50;;;;;;5107310;28;20500;-59
2022/04/11 05:07:16;;;;;;;11.70;7.80;;;4.90;73.60;;;;;;5106524;28;20035;-59
2022/04/11 05:09:42;;;;;;;10.20;7.65;;;4.90;73.70;;;;;;5109338;27;20037;-58
2022/04/11 05:12:08;;;;;;;9.93;7.88;;;4.90;73.70;;;;;;5080747;28;20035;-60
2022/04/11 05:14:33;;;;;;;9.57;7.60;;;4.90;73.80;;;;;;5108294;27;20042;-59
2022/04/11 05:16:59;;;;;;;14.63;7.82;;;4.90;73.90;;;;;;5095055;28;20398;-59
2022/04/11 05:19:25;;;;;;;11.77;7.75;;;4.90;74.10;;;;;;5071333;28;20059;-60
2022/04/11 05:21:50;;;;;;;10.47;7.33;;;5.00;74.20;;;;;;5101533;28;20035;-60
2022/04/11 05:24:16;;;;;;;10.30;7.65;;;5.00;74.30;;;;;;5095323;28;20139;-60
2022/04/11 05:26:41;;;;;;;10.43;7.25;;;5.00;74.40;;;;;;5098217;28;20034;-60
2022/04/11 05:29:07;;;;;;;10.18;7.90;;;5.00;74.50;;;;;;5092458;28;20046;-60
2022/04/11 05:31:33;;;;;;;11.35;7.50;;;5.00;74.60;;;;;;5100041;28;20431;-60
2022/04/11 05:34:00;;;;;;;13.18;7.68;;;5.00;74.80;;;;;;5089114;28;20032;-60
2022/04/11 05:36:25;;;;;;;9.60;7.68;;;5.10;75.00;;;;;;5087468;28;20046;-60
2022/04/11 05:38:51;;;;;;;11.23;7.97;;;5.10;75.20;;;;;;5088722;28;20469;-60
2022/04/11 05:41:17;;;;;;;12.30;8.23;;;5.10;75.40;;;;;;5089123;28;20107;-60
2022/04/11 05:43:42;;;;;;;10.52;7.47;;;5.10;75.50;;;;;;5089492;28;20032;-60
2022/04/11 05:46:08;;;;;;;10.73;8.20;;;5.20;75.50;;;;;;5091698;28;20069;-60
2022/04/11 05:48:35;;;;;;;10.15;7.57;;;5.20;75.50;;;;;;5087308;28;20040;-60
2022/04/11 05:51:01;;;;;;;12.95;8.60;;;5.20;75.60;;;;;;5088826;28;20483;-60
2022/04/11 05:53:27;;;;;;;11.48;8.00;;;5.20;75.80;;;;;;5070709;28;20023;-60
2022/04/11 05:55:53;;;;;;;9.82;7.88;;;5.20;75.80;;;;;;5088277;28;20028;-60
2022/04/11 05:58:18;;;;;;;8.35;7.43;;;5.30;76.10;;;;;;5057484;28;20479;-61
2022/04/11 06:00:44;;;;;;;9.52;7.18;;;5.30;76.20;;;;;;5089301;28;20560;-61
2022/04/11 06:03:10;;;;;;;10.23;7.93;;;5.30;76.40;;;;;;5101220;28;20090;-61
2022/04/11 06:05:39;;;;;;;9.95;7.47;;;5.40;76.70;;;;;;5095045;28;20036;-61
2022/04/11 06:08:05;;;;;;;11.40;7.32;;;5.40;76.80;;;;;;5112821;28;20047;-61
2022/04/11 06:10:31;;;;;;;9.48;7.38;;;5.50;76.80;;;;;;5111455;28;20106;-61
2022/04/11 06:12:57;;;;;;;9.02;7.03;;;5.50;76.60;;;;;;5112819;28;20119;-59
2022/04/11 06:15:23;;;;;;;9.75;7.20;;;5.60;76.50;;;;;;5076507;27;20454;-60
2022/04/11 06:17:49;;;;;;;10.65;7.53;;;5.60;76.50;;;;;;5129537;27;20035;-60
2022/04/11 06:20:15;;;;;;;10.55;7.43;;;5.60;76.60;;;;;;5114346;27;20026;-60
2022/04/11 06:22:40;;;;;;;11.02;8.20;;;5.70;76.50;;;;;;5125950;27;20516;-60
2022/04/11 06:25:08;;;;;;;11.50;7.82;;;5.70;76.40;;;;;;5114563;27;20024;-62
2022/04/11 06:27:36;;;;;;;8.57;7.22;;;5.70;76.30;;;;;;5107260;28;20562;-60
2022/04/11 06:30:02;;;;;;;9.57;7.55;;;5.70;76.10;;;;;;5112229;27;20020;-60
2022/04/11 06:32:30;;;;;;;10.07;7.28;;;5.80;76.00;;;;;;5102536;27;20036;-61
2022/04/11 06:34:56;;;;;;;8.00;6.65;;;5.80;75.80;;;;;;5104571;27;20049;-61
2022/04/11 06:37:23;;;;;;;8.25;7.07;;;5.90;75.60;;;;;;5111345;27;20570;-60
2022/04/11 06:39:49;;;;;;;10.27;6.95;;;5.90;75.40;;;;;;5108378;27;20028;-60
2022/04/11 06:42:15;;;;;;;10.70;7.03;;;5.90;75.20;;;;;;5107446;27;20028;-60
2022/04/11 06:44:41;;;;;;;9.02;6.68;;;5.90;74.90;;;;;;5087721;28;20031;-61
2022/04/11 06:47:08;;;;;;;9.00;7.20;;;6.00;74.70;;;;;;5104840;27;20355;-61
2022/04/11 06:49:34;;;;;;;8.13;7.13;;;6.10;74.50;;;;;;5105520;27;20031;-62
2022/04/11 06:52:00;;;;;;;11.45;7.78;;;6.20;74.40;;;;;;5087250;27;20027;-60
2022/04/11 06:54:27;;;;;;;8.32;7.32;;;6.20;74.20;;;;;;5118726;27;20431;-60
2022/04/11 06:56:52;;;;;;;9.40;6.80;;;6.30;74.00;;;;;;5114218;27;20081;-60
2022/04/11 06:59:18;;;;;;;8.98;7.13;;;6.40;73.80;;;;;;5094765;28;20028;-59
2022/04/11 07:01:44;;;;;;;9.18;7.07;;;6.40;73.70;;;;;;5105159;27;20424;-61
2022/04/11 07:04:09;;;;;;;10.65;8.10;;;6.50;73.40;;;;;;5085248;28;20027;-61
2022/04/11 07:06:35;;;;;;;10.18;8.15;;;6.50;73.30;;;;;;5107243;27;20080;-60
2022/04/11 07:09:01;;;;;;;13.18;8.52;;;6.60;73.30;;;;;;5108610;28;20505;-61
2022/04/11 07:11:26;;;;;;;9.85;7.47;;;6.60;73.00;;;;;;5109249;28;20031;-61
2022/04/11 07:13:52;;;;;;;10.00;7.88;;;6.70;72.90;;;;;;5111931;28;20359;-60
2022/04/11 07:16:18;;;;;;;9.70;7.32;;;6.80;72.70;;;;;;5104812;27;20414;-60
2022/04/11 07:18:43;;;;;;;10.00;7.85;;;6.80;72.50;;;;;;5102673;27;20028;-61
2022/04/11 07:21:09;;;;;;;11.80;7.65;;;6.90;72.40;;;;;;5100698;28;20161;-61
2022/04/11 07:23:35;;;;;;;12.25;8.43;;;7.00;72.10;;;;;;5094601;28;20062;-60
2022/04/11 07:26:00;;;;;;;8.73;7.70;;;7.10;71.70;;;;;;5101150;28;20107;-61
2022/04/11 07:28:26;;;;;;;10.15;7.63;;;7.10;71.50;;;;;;5089356;28;20136;-61
2022/04/11 07:30:52;;;;;;;10.40;7.57;;;7.10;72.00;;;;;;5101961;28;20031;-60
2022/04/11 07:33:17;;;;;;;11.20;8.00;;;7.20;71.40;;;;;;5084682;28;20055;-61
2022/04/11 07:35:43;;;;;;;9.25;8.02;;;7.30;70.90;;;;;;5106037;28;20115;-60
2022/04/11 07:38:09;;;;;;;10.38;7.38;;;7.30;70.90;;;;;;5077890;28;20495;-60
2022/04/11 07:40:35;;;;;;;8.45;6.53;;;7.40;70.70;;;;;;5097028;28;20038;-60
2022/04/11 07:43:00;;;;;;;10.15;6.90;;;7.40;70.60;;;;;;5095665;28;20101;-61
2022/04/11 07:45:26;;;;;;;10.70;7.72;;;7.50;70.80;;;;;;5090228;28;20028;-60
2022/04/11 07:47:52;;;;;;;10.02;7.85;;;7.60;70.70;;;;;;5104362;28;20049;-60
2022/04/11 07:50:18;;;;;;;11.07;7.22;;;7.60;70.60;;;;;;5102310;27;20765;-61
2022/04/11 07:52:44;;;;;;;8.30;6.82;;;7.70;70.40;;;;;;5103989;28;20032;-61
2022/04/11 07:55:12;;;;;;;9.95;7.40;;;7.80;70.20;;;;;;5093227;28;20028;-61
2022/04/11 07:57:38;;;;;;;7.85;6.28;;;7.80;69.20;;;;;;5095069;28;20039;-61
2022/04/11 08:00:06;;;;;;;6.65;5.93;;;7.90;69.30;;;;;;5099230;27;20364;-60
2022/04/11 08:02:32;;;;;;;10.85;6.50;;;8.00;69.30;;;;;;5095236;28;20087;-60
2022/04/11 08:05:02;;;;;;;10.73;6.32;;;8.10;68.80;;;;;;5102493;28;20042;-61
2022/04/11 08:07:32;;;;;;;9.35;6.70;;;8.20;68.20;;;;;;5098438;28;20082;-60
2022/04/11 08:09:58;;;;;;;8.85;6.47;;;8.30;68.30;;;;;;5102590;28;20091;-61
2022/04/11 08:12:24;;;;;;;9.85;6.68;;;8.30;68.20;;;;;;5095365;28;20035;-60
2022/04/11 08:14:49;;;;;;;7.75;6.10;;;8.40;68.20;;;;;;5102171;28;20027;-60
2022/04/11 08:17:15;;;;;;;12.23;6.72;;;8.50;68.10;;;;;;5106495;27;20089;-61
2022/04/11 08:19:41;;;;;;;8.95;6.22;;;8.60;68.10;;;;;;5100118;28;20054;-61
2022/04/11 08:22:06;;;;;;;9.55;5.53;;;8.60;67.90;;;;;;5096387;28;20043;-61
2022/04/11 08:24:32;;;;;;;8.90;5.55;;;8.70;68.00;;;;;;5098895;28;20032;-61
2022/04/11 08:26:58;;;;;;;10.32;6.10;;;8.80;68.00;;;;;;5088463;28;20029;-61
2022/04/11 08:29:27;;;;;;;8.75;6.72;;;8.90;67.80;;;;;;5091142;28;20036;-61
2022/04/11 08:31:53;;;;;;;9.18;6.10;;;8.90;67.80;;;;;;5102195;28;20048;-61
2022/04/11 08:34:19;;;;;;;10.30;6.25;;;9.00;67.80;;;;;;5088090;28;20494;-61
2022/04/11 08:36:44;;;;;;;12.70;6.78;;;9.10;67.70;;;;;;5070591;28;20089;-61
2022/04/11 08:39:11;;;;;;;8.93;5.90;;;9.10;67.60;;;;;;5087873;28;20548;-60
2022/04/11 08:41:37;;;;;;;7.32;5.53;;;9.20;67.60;;;;;;5095719;28;20029;-60
2022/04/11 08:44:05;;;;;;;7.55;5.57;;;9.30;67.60;;;;;;5077215;28;20032;-61
2022/04/11 08:46:32;;;;;;;7.30;5.43;;;9.30;67.40;;;;;;5104829;28;20039;-60
2022/04/11 08:49:02;;;;;;;8.98;5.40;;;9.40;67.20;;;;;;5106871;28;20024;-61
2022/04/11 08:51:31;;;;;;;9.35;5.45;;;9.50;67.00;;;;;;5096320;28;20382;-61
2022/04/11 08:54:00;;;;;;;6.75;5.20;;;9.60;66.90;;;;;;5088692;28;20019;-61
2022/04/11 08:56:29;;;;;;;9.43;6.47;;;9.70;66.40;;;;;;5091855;28;20035;-61
2022/04/11 08:58:55;;;;;;;6.03;4.93;;;9.70;66.10;;;;;;5097604;28;20024;-61
2022/04/11 09:01:22;;;;;;;8.18;5.30;;;9.80;66.20;;;;;;5088737;28;20372;-61
2022/04/11 09:03:48;;;;;;;8.15;5.13;;;9.90;66.10;;;;;;5094434;28;20023;-61
2022/04/11 09:06:15;;;;;;;6.13;4.15;;;10.00;65.90;;;;;;5080381;28;20031;-61
2022/04/11 09:09:00;;;;;;;5.25;3.95;;;10.10;65.60;;;;;;5092131;28;20450;-61
2022/04/11 09:11:34;;;;;;;6.82;4.68;;;10.20;65.20;;;;;;5099117;28;20114;-61
2022/04/11 09:14:03;;;;;;;5.80;4.15;;;10.20;65.00;;;;;;5091441;28;20060;-61
2022/04/11 09:16:47;;;;;;;7.15;4.47;;;10.40;65.40;;;;;;5073684;28;20019;-60
2022/04/11 09:19:28;;;;;;;6.85;4.68;;;10.50;65.40;;;;;;5090501;28;20093;-61
2022/04/11 09:21:57;;;;;;;8.52;4.50;;;10.70;65.50;;;;;;5092546;28;20055;-61
2022/04/11 09:24:26;;;;;;;6.68;4.93;;;10.80;65.10;;;;;;5103291;27;20096;-61
2022/04/11 09:26:54;;;;;;;8.02;4.60;;;10.90;64.90;;;;;;5090395;28;20051;-61
2022/04/11 09:29:20;;;;;;;4.88;4.32;;;11.10;64.30;;;;;;5116147;28;20023;-61
2022/04/11 09:31:46;;;;;;;6.40;3.47;;;11.20;63.60;;;;;;5110813;28;20036;-61
2022/04/11 09:34:18;;;;;;;4.32;3.75;;;11.30;63.20;;;;;;5074329;28;20050;-61
2022/04/11 09:36:45;;;;;;;;;;;11.40;63.20;;;;;;5112062;28;20028;-61
2022/04/11 09:39:11;;;;;;;6.35;4.07;;;11.50;62.70;;;;;;5080932;28;19912;-61
2022/04/11 09:41:43;;;;;;;6.50;4.20;;;11.60;62.20;;;;;;5124798;27;20084;-61
2022/04/11 09:44:32;;;;;;;10.07;3.90;;;11.70;62.00;;;;;;5112944;27;20024;-61
2022/04/11 09:46:59;;;;;;;4.85;3.45;;;11.70;61.70;;;;;;5113687;27;20717;-61
2022/04/11 09:49:26;;;;;;;6.10;3.33;;;11.80;61.10;;;;;;5112909;28;20055;-61
2022/04/11 09:52:11;;;;;;;7.85;3.42;;;11.90;61.10;;;;;;5096739;27;20115;-61
2022/04/11 09:54:45;;;;;;;6.22;3.45;;;12.00;60.90;;;;;;5084322;27;20034;-61
2022/04/11 09:57:13;;;;;;;5.93;3.47;;;12.10;60.40;;;;;;5112579;27;20101;-60
2022/04/11 09:59:39;;;;;;;7.38;3.08;;;12.20;59.60;;;;;;5107775;27;20509;-61
2022/04/11 10:02:06;;;;;;;6.10;2.97;;;12.40;59.60;;;;;;5102455;28;20036;-61
2022/04/11 10:04:35;;;;;;;5.22;3.00;;;12.50;58.50;;;;;;5094340;28;20634;-61
2022/04/11 10:07:01;;;;;;;5.40;2.53;;;12.50;58.00;;;;;;5118871;27;20386;-61
2022/04/11 10:09:27;;;;;;;4.85;2.63;;;12.60;57.70;;;;;;5103388;27;20028;-61
2022/04/11 10:11:54;;;;;;;6.22;2.80;;;12.60;56.80;;;;;;5082348;28;20059;-61
2022/04/11 10:14:25;;;;;;;4.63;2.20;;;12.70;56.30;;;;;;5108137;27;20031;-59
2022/04/11 10:16:55;;;;;;;4.00;2.38;;;12.80;56.10;;;;;;5111756;28;20031;-60
2022/04/11 10:19:26;;;;;;;4.90;2.70;;;13.00;54.50;;;;;;5113356;27;20099;-60
2022/04/11 10:21:57;;;;;;;5.85;2.30;;;13.10;53.70;;;;;;5113308;27;20028;-60
2022/04/11 10:24:34;;;;;;;5.28;2.33;;;13.20;53.10;;;;;;5115424;27;20031;-60
2022/04/11 10:27:23;;;;;;;3.08;2.00;;;13.20;51.50;;;;;;5133811;27;20026;-60
2022/04/11 10:29:50;;;;;;;3.20;2.03;;;13.30;51.40;;;;;;5119344;27;20048;-60
2022/04/11 10:32:24;;;;;;;4.20;2.30;;;13.30;51.30;;;;;;5111831;28;20035;-60
2022/04/11 10:35:00;;;;;;;6.57;2.45;;;13.40;49.70;;;;;;5109126;27;20446;-60
2022/04/11 10:37:49;;;;;;;7.55;2.88;;;13.40;50.10;;;;;;5111056;28;20066;-60
2022/04/11 10:40:19;;;;;;;6.00;2.78;;;13.50;50.50;;;;;;5095394;27;20062;-60
2022/04/11 10:43:00;;;;;;;4.57;3.03;;;13.60;51.10;;;;;;5111999;27;20058;-60
2022/04/11 10:45:29;;;;;;;4.25;2.90;;;13.80;51.30;;;;;;5081715;28;20058;-60
2022/04/11 10:47:55;;;;;;;8.43;3.50;;;13.90;51.10;;;;;;5116005;27;20035;-60
2022/04/11 10:50:23;;;;;;;5.35;2.90;;;14.00;50.10;;;;;;5119827;27;20027;-60
2022/04/11 10:53:23;;;;;;;4.18;3.20;;;14.00;49.20;;;;;;5104828;27;20102;-60
2022/04/11 10:56:02;;;;;;;4.03;2.78;;;14.00;48.80;;;;;;5114911;27;20027;-60
2022/04/11 10:58:49;;;;;;;4.40;3.20;;;14.20;49.60;;;;;;5111758;27;20189;-60
2022/04/11 11:01:35;;;;;;;4.68;2.80;;;14.20;48.80;;;;;;5112631;27;20051;-60
2022/04/11 11:04:19;;;;;;;5.05;3.25;;;14.40;48.20;;;;;;5084490;28;20036;-59
2022/04/11 11:06:45;;;;;;;4.60;3.28;;;14.40;46.80;;;;;;5098087;28;20032;-60
2022/04/11 11:09:18;;;;;;;5.38;3.20;;;14.50;45.90;;;;;;5101750;27;20455;-61
2022/04/11 11:11:48;;;;;;;5.28;3.03;;;14.50;46.10;;;;;;5085148;28;20028;-59
2022/04/11 11:14:40;;;;;;;5.15;2.67;;;14.60;45.70;;;;;;5117316;27;20458;-59
2022/04/11 11:17:06;;;;;;;4.60;3.33;;;14.70;45.60;;;;;;5100211;28;20045;-59
2022/04/11 11:19:31;;;;;;;10.52;3.33;;;14.90;45.60;;;;;;5086428;27;20036;-60
2022/04/11 11:21:58;;;;;;;3.97;2.63;;;15.00;45.80;;;;;;5106683;28;20194;-60
2022/04/11 11:24:24;;;;;;;6.90;2.67;;;15.10;46.20;;;;;;5106100;28;20531;-59
2022/04/11 11:27:04;;;;;;;5.40;3.33;;;15.30;46.20;;;;;;5110413;28;20035;-60
2022/04/11 11:29:32;;;;;;;4.70;2.90;;;15.40;44.70;;;;;;5101694;28;20122;-60
2022/04/11 11:32:03;;;;;;;4.18;2.92;;;15.50;45.40;;;;;;5097658;28;20067;-61
2022/04/11 11:34:36;;;;;;;6.25;2.42;;;15.60;45.60;;;;;;5098272;28;20055;-60
2022/04/11 11:37:06;;;;;;;4.15;2.65;;;15.80;45.50;;;;;;5101698;28;20229;-60
2022/04/11 11:39:35;;;;;;;5.03;3.40;;;15.90;45.60;;;;;;5098214;27;20375;-60
2022/04/11 11:42:14;;;;;;;5.20;3.10;;;16.00;43.70;;;;;;5100216;27;20202;-60
2022/04/11 11:44:47;;;;;;;5.65;2.60;;;16.10;43.30;;;;;;5104235;27;20019;-60
2022/04/11 11:47:13;;;;;;;5.47;3.10;;;16.10;43.90;;;;;;5093426;28;20103;-60
2022/04/11 11:49:43;;;;;;;4.65;2.60;;;16.20;44.30;;;;;;5099988;28;20056;-60
2022/04/11 11:52:20;;;;;;;4.78;2.75;;;16.20;44.30;;;;;;5083921;28;20028;-60
2022/04/11 11:54:51;;;;;;;4.50;2.83;;;16.30;43.60;;;;;;5098796;27;20032;-60
2022/04/11 11:57:21;;;;;;;4.53;3.00;;;16.40;43.40;;;;;;5102225;27;20032;-60
2022/04/11 11:59:59;;;;;;;5.55;3.33;;;16.50;42.60;;;;;;5124358;27;20023;-60
2022/04/11 12:05:24;;;;;;;5.97;3.30;;;16.60;42.10;;;;;;5121324;27;20394;-60
2022/04/11 12:08:13;;;;;;;5.03;3.65;;;16.70;41.70;;;;;;5092009;28;20028;-61
2022/04/11 12:10:40;;;;;;;6.20;3.13;;;16.70;41.60;;;;;;5123189;27;20500;-60
2022/04/11 12:13:05;;;;;;;5.90;3.63;;;16.70;42.10;;;;;;5094650;27;20432;-60
2022/04/11 12:15:33;;;;;;;8.93;4.20;;;16.70;41.60;;;;;;5097523;28;20104;-60
2022/04/11 12:18:09;;;;;;;7.78;3.38;;;16.70;41.70;;;;;;5097492;27;20035;-60
2022/04/11 12:20:36;;;;;;;4.20;3.10;;;16.70;41.40;;;;;;5098959;28;20032;-60
2022/04/11 12:23:12;;;;;;;3.95;2.97;;;16.70;41.90;;;;;;5097713;28;20127;-60
2022/04/11 12:25:40;;;;;;;7.68;3.20;;;16.90;41.80;;;;;;5086322;28;20031;-61
2022/04/11 12:28:26;;;;;;;6.90;3.95;;;17.00;41.30;;;;;;5088868;28;20027;-60
2022/04/11 12:31:03;;;;;;;5.45;3.10;;;17.10;40.90;;;;;;5093806;28;20030;-60
2022/04/11 12:33:36;;;;;;;5.35;3.05;;;17.20;41.10;;;;;;5087865;28;20228;-60
2022/04/11 12:36:10;;;;;;;4.95;3.13;;;17.30;41.10;;;;;;5089769;28;20421;-60
2022/04/11 12:38:53;;;;;;;4.82;3.13;;;17.50;40.40;;;;;;5085088;28;20024;-60
2022/04/11 12:41:47;;;;;;;5.53;2.90;;;17.60;40.50;;;;;;5096698;28;20077;-60
2022/04/11 12:44:17;;;;;;;5.03;2.85;;;17.60;40.40;;;;;;5088043;28;20032;-60
2022/04/11 12:46:44;;;;;;;6.55;3.47;;;17.70;40.80;;;;;;5098647;28;20032;-60
2022/04/11 12:49:18;;;;;;;7.65;3.63;;;17.80;41.00;;;;;;5105398;28;20378;-60
2022/04/11 12:52:04;;;;;;;5.38;2.80;;;17.90;39.60;;;;;;5089771;28;20056;-60
2022/04/11 12:54:49;;;;;;;5.28;3.50;;;18.10;39.70;;;;;;5087273;28;20229;-60
2022/04/11 12:57:21;;;;;;;5.28;3.65;;;18.30;39.70;;;;;;5080346;28;20501;-60